1A9

Prattville - Grouby Field Airport

Prattville, Alabama, USA
METAR K1A9 242315Z AUTO 00000KT 10SM -RA SCT011 SCT045 BKN090 23/23 A3003 RMK AO2 P0001 T02260226
Observed Flight Rules
Sep-24 @ 23:15 UTC (5 minutes ago) Visual Flight Rules
Visibility Clouds Conditions
10 miles
  • Scattered at 1,100' AGL
  • Scattered at 4,500' AGL
  • Broken at 9,000' AGL
  • Light Rain
Temperatures Readings Precipitation
Current 23°C / 73°F
Dewpoint 23°C / 73°F
Humidity 100%
Altimeter 30.03" Hg
Pressure 1017 hPa
Elevation 69
Current Rain 0.01
METAR K1A9 242315Z AUTO 00000KT 10SM -RA SCT011 SCT045 BKN090 23/23 A3003 RMK AO2 P0001 T02260226
Observed Flight Rules
Sep-24 @ 23:15 UTC
(5 minutes ago)
VFR
Clouds
  • Scattered at 1,100' AGL
  • Scattered at 4,500' AGL
  • Broken at 9,000' AGL
Conditions
  • Light Rain
Temperature Dewpoint
23°C / 73°F 23°C / 73°F
Humidity Altimeter Pressure
100% 30.03" Hg 1017 hPa
Current Rain
0.01